createdAt,value
2022-07-25T00:00:33.819Z,100946.00
2022-07-25T00:03:06.944Z,100920.00
2022-07-25T00:05:41.003Z,100941.00
2022-07-25T00:08:14.129Z,100926.00
2022-07-25T00:10:47.112Z,100937.00
2022-07-25T00:13:19.987Z,100900.00
2022-07-25T00:15:57.007Z,100917.00
2022-07-25T00:18:30.188Z,100925.00
2022-07-25T00:21:03.303Z,100899.00
2022-07-25T00:23:36.222Z,100889.00
2022-07-25T00:26:09.419Z,100893.00
2022-07-25T00:28:42.353Z,100872.00
2022-07-25T00:31:15.379Z,100858.00
2022-07-25T00:33:48.335Z,100856.00
2022-07-25T00:36:21.862Z,100847.00
2022-07-25T00:38:54.902Z,100811.00
2022-07-25T00:41:27.883Z,100817.00
2022-07-25T00:44:00.954Z,100797.00
2022-07-25T00:46:34.725Z,100793.00
2022-07-25T00:49:07.930Z,100786.00
2022-07-25T00:51:41.061Z,100770.00
2022-07-25T00:54:14.499Z,100754.00
2022-07-25T00:56:47.489Z,100747.00
2022-07-25T00:59:20.829Z,100724.00
2022-07-25T01:01:53.723Z,100729.00
2022-07-25T01:04:30.990Z,100737.00
2022-07-25T01:07:04.814Z,100746.00
2022-07-25T01:09:37.697Z,100756.00
2022-07-25T01:12:11.110Z,100747.00
2022-07-25T01:14:44.168Z,100759.00
2022-07-25T01:17:17.078Z,100751.00
2022-07-25T01:19:50.083Z,100749.00
2022-07-25T01:22:23.051Z,100737.00
2022-07-25T01:24:56.051Z,100734.00
2022-07-25T01:27:28.740Z,100743.00
2022-07-25T01:30:01.507Z,100735.00
2022-07-25T01:32:34.418Z,100739.00
2022-07-25T01:35:08.298Z,100730.00
2022-07-25T01:37:41.161Z,100736.00
2022-07-25T01:40:15.547Z,100726.00
2022-07-25T01:42:48.588Z,100727.00
2022-07-25T01:45:21.449Z,100697.00
2022-07-25T01:47:54.329Z,100727.00
2022-07-25T01:50:28.681Z,100726.00
2022-07-25T01:53:01.857Z,100725.00
2022-07-25T01:55:34.638Z,100727.00
2022-07-25T01:58:10.452Z,100710.00
2022-07-25T02:00:47.011Z,100728.00
2022-07-25T02:03:34.871Z,100728.00
2022-07-25T02:06:09.370Z,100712.00
2022-07-25T02:08:42.406Z,100703.00
2022-07-25T02:11:15.405Z,100674.00
2022-07-25T02:13:48.664Z,100691.00
2022-07-25T02:16:21.604Z,100685.00
2022-07-25T02:18:55.906Z,100677.00
2022-07-25T02:21:28.861Z,100654.00
2022-07-25T02:24:01.606Z,100646.00
2022-07-25T02:26:35.205Z,100642.00
2022-07-25T02:29:07.807Z,100636.00
2022-07-25T02:31:40.565Z,100641.00
2022-07-25T02:34:15.908Z,100650.00
2022-07-25T02:36:48.491Z,100644.00
2022-07-25T02:39:21.399Z,100626.00
2022-07-25T02:41:54.232Z,100604.00
2022-07-25T02:44:27.290Z,100591.00
2022-07-25T02:47:00.093Z,100606.00
2022-07-25T02:49:33.012Z,100610.00
2022-07-25T02:52:05.772Z,100623.00
2022-07-25T02:54:39.140Z,100607.00
2022-07-25T02:57:11.994Z,100617.00
2022-07-25T02:59:44.615Z,100614.00
2022-07-25T03:02:17.562Z,100621.00
2022-07-25T03:04:50.256Z,100600.00
2022-07-25T03:07:23.310Z,100595.00
2022-07-25T03:09:56.167Z,100598.00
2022-07-25T03:12:29.165Z,100601.00
2022-07-25T03:15:02.131Z,100597.00
2022-07-25T03:17:35.091Z,100609.00
2022-07-25T03:20:12.406Z,100589.00
2022-07-25T03:22:45.328Z,100600.00
2022-07-25T03:25:21.729Z,100586.00
2022-07-25T03:27:54.309Z,100589.00
2022-07-25T03:30:27.148Z,100593.00
2022-07-25T03:33:00.008Z,100586.00
2022-07-25T03:35:32.944Z,100577.00
2022-07-25T03:38:06.806Z,100581.00
2022-07-25T03:40:39.515Z,100579.00
2022-07-25T03:43:12.462Z,100567.00
2022-07-25T03:45:49.757Z,100567.00
2022-07-25T03:48:22.723Z,100572.00
2022-07-25T03:50:55.661Z,100556.00
2022-07-25T03:53:29.024Z,100561.00
2022-07-25T03:56:01.946Z,100569.00
2022-07-25T03:58:34.897Z,100542.00
2022-07-25T04:01:07.961Z,100547.00
2022-07-25T04:03:42.297Z,100553.00
2022-07-25T04:06:16.357Z,100530.00
2022-07-25T04:08:49.351Z,100537.00
2022-07-25T04:11:21.971Z,100535.00
2022-07-25T04:13:55.758Z,100526.00
2022-07-25T04:16:28.804Z,100527.00
2022-07-25T04:19:02.363Z,100505.00
2022-07-25T04:21:35.216Z,100510.00
2022-07-25T04:24:08.396Z,100512.00
2022-07-25T04:26:41.279Z,100498.00
2022-07-25T04:29:18.277Z,100507.00
2022-07-25T04:31:51.349Z,100493.00
2022-07-25T04:34:24.214Z,100498.00
2022-07-25T04:36:56.969Z,100489.00
2022-07-25T04:39:29.823Z,100481.00
2022-07-25T04:42:02.765Z,100491.00
2022-07-25T04:44:35.506Z,100488.00
2022-07-25T04:47:08.421Z,100483.00
2022-07-25T04:49:41.156Z,100493.00
2022-07-25T04:52:18.863Z,100502.00
2022-07-25T04:54:51.689Z,100472.00
2022-07-25T04:57:24.385Z,100471.00
2022-07-25T04:59:57.199Z,100464.00
2022-07-25T05:02:29.999Z,100464.00
2022-07-25T05:05:03.235Z,100470.00
2022-07-25T05:07:36.180Z,100465.00
2022-07-25T05:10:09.935Z,100475.00
2022-07-25T05:12:42.860Z,100476.00
2022-07-25T05:15:16.572Z,100455.00
2022-07-25T05:17:50.242Z,100449.00
2022-07-25T05:20:23.259Z,100442.00
2022-07-25T05:22:56.686Z,100427.00
2022-07-25T05:25:33.857Z,100427.00
2022-07-25T05:28:06.806Z,100443.00
2022-07-25T05:30:40.212Z,100456.00
2022-07-25T05:33:16.048Z,100420.00
2022-07-25T05:35:49.282Z,100409.00
2022-07-25T05:38:22.122Z,100416.00
2022-07-25T05:40:55.033Z,100407.00
2022-07-25T05:43:31.850Z,100431.00
2022-07-25T05:46:08.203Z,100393.00
2022-07-25T05:48:45.309Z,100400.00
2022-07-25T05:51:19.181Z,100375.00
2022-07-25T05:53:52.192Z,100379.00
2022-07-25T05:56:29.765Z,100380.00
2022-07-25T05:59:07.556Z,100379.00
2022-07-25T06:01:40.762Z,100373.00
2022-07-25T06:04:13.602Z,100384.00
2022-07-25T06:06:47.582Z,100368.00
2022-07-25T06:09:20.897Z,100383.00
2022-07-25T06:11:59.895Z,100358.00
2022-07-25T06:14:31.697Z,100370.00
2022-07-25T06:17:04.668Z,100396.00
2022-07-25T06:19:37.493Z,100372.00
2022-07-25T06:22:15.402Z,100358.00
2022-07-25T06:24:48.670Z,100383.00
2022-07-25T06:27:24.933Z,100373.00
2022-07-25T06:29:55.880Z,100372.00
2022-07-25T06:32:28.960Z,100379.00
2022-07-25T06:35:01.824Z,100360.00
2022-07-25T06:37:34.571Z,100373.00
2022-07-25T06:40:07.631Z,100392.00
2022-07-25T06:42:47.657Z,100381.00
2022-07-25T06:45:20.996Z,100372.00
2022-07-25T06:47:54.259Z,100368.00
2022-07-25T06:50:27.300Z,100351.00
2022-07-25T06:53:00.464Z,100361.00
2022-07-25T06:55:39.951Z,100347.00
2022-07-25T06:58:12.537Z,100344.00
2022-07-25T07:00:54.042Z,100345.00
2022-07-25T07:03:27.167Z,100355.00
2022-07-25T07:06:00.351Z,100337.00
2022-07-25T07:08:33.279Z,100341.00
2022-07-25T07:11:06.084Z,100350.00
2022-07-25T07:13:39.679Z,100349.00
2022-07-25T07:16:13.086Z,100344.00
2022-07-25T07:18:49.328Z,100326.00
2022-07-25T07:21:21.558Z,100357.00
2022-07-25T07:23:54.767Z,100342.00
2022-07-25T07:26:32.143Z,100336.00
2022-07-25T07:29:08.767Z,100343.00
2022-07-25T07:31:45.254Z,100341.00
2022-07-25T07:34:18.389Z,100310.00
2022-07-25T07:36:51.657Z,100303.00
2022-07-25T07:39:24.833Z,100317.00
2022-07-25T07:41:58.048Z,100292.00
2022-07-25T07:44:32.187Z,100292.00
2022-07-25T07:47:06.030Z,100289.00
2022-07-25T07:49:39.954Z,100310.00
2022-07-25T07:52:13.035Z,100265.00
2022-07-25T07:55:03.603Z,100299.00
2022-07-25T07:57:36.713Z,100289.00
2022-07-25T08:00:16.505Z,100322.00
2022-07-25T08:02:52.279Z,100289.00
2022-07-25T08:05:29.973Z,100283.00
2022-07-25T08:08:07.310Z,100278.00
2022-07-25T08:10:41.915Z,100288.00
2022-07-25T08:13:24.593Z,100285.00
2022-07-25T08:16:00.407Z,100288.00
2022-07-25T08:18:36.780Z,100253.00
2022-07-25T08:21:11.008Z,100268.00
2022-07-25T08:23:48.156Z,100262.00
2022-07-25T08:26:21.151Z,100265.00
2022-07-25T08:29:17.140Z,100246.00
2022-07-25T08:31:30.115Z,100242.00
2022-07-25T08:34:03.265Z,100258.00
2022-07-25T08:36:37.528Z,100268.00
2022-07-25T08:39:10.574Z,100264.00
2022-07-25T08:41:45.458Z,100272.00
2022-07-25T08:44:20.385Z,100255.00
2022-07-25T08:46:53.838Z,100249.00
2022-07-25T08:49:26.946Z,100224.00
2022-07-25T08:52:01.211Z,100249.00
2022-07-25T08:54:34.951Z,100251.00
2022-07-25T08:57:09.768Z,100240.00
2022-07-25T08:59:42.768Z,100243.00
2022-07-25T09:02:19.845Z,100262.00
2022-07-25T09:04:52.827Z,100268.00
2022-07-25T09:07:42.394Z,100226.00
2022-07-25T09:10:20.274Z,100243.00
2022-07-25T09:13:02.811Z,100243.00
2022-07-25T09:15:40.596Z,100238.00
2022-07-25T09:18:19.542Z,100237.00
2022-07-25T09:20:54.293Z,100218.00
2022-07-25T09:23:41.091Z,100199.00
2022-07-25T09:26:15.497Z,100213.00
2022-07-25T09:28:50.344Z,100199.00
2022-07-25T09:31:23.143Z,100203.00
2022-07-25T09:34:00.907Z,100193.00
2022-07-25T09:36:33.893Z,100183.00
2022-07-25T09:39:08.449Z,100187.00
2022-07-25T09:41:44.602Z,100176.00
2022-07-25T09:44:24.924Z,100167.00
2022-07-25T09:47:02.014Z,100164.00
2022-07-25T09:49:45.603Z,100163.00
2022-07-25T09:52:19.618Z,100159.00
2022-07-25T09:54:52.410Z,100155.00
2022-07-25T09:57:26.050Z,100146.00
2022-07-25T09:59:59.240Z,100155.00
2022-07-25T10:02:56.722Z,100144.00
2022-07-25T10:05:52.925Z,100134.00
2022-07-25T10:08:27.093Z,100134.00
2022-07-25T10:11:08.015Z,100128.00
2022-07-25T10:13:41.079Z,100145.00
2022-07-25T10:16:21.945Z,100143.00
2022-07-25T10:18:56.297Z,100106.00
2022-07-25T10:21:34.948Z,100109.00
2022-07-25T10:24:10.135Z,100135.00
2022-07-25T10:26:45.575Z,100089.00
2022-07-25T10:29:19.273Z,100113.00
2022-07-25T10:31:51.991Z,100111.00
2022-07-25T10:34:40.226Z,100119.00
2022-07-25T10:37:18.659Z,100101.00
2022-07-25T10:39:51.704Z,100093.00
2022-07-25T10:42:25.778Z,100086.00
2022-07-25T10:45:03.187Z,100086.00
2022-07-25T10:47:46.538Z,100080.00
2022-07-25T10:50:34.678Z,100074.00
2022-07-25T10:53:03.198Z,100081.00
2022-07-25T10:55:37.612Z,100062.00
2022-07-25T10:58:18.429Z,100059.00
2022-07-25T11:00:49.234Z,100047.00
2022-07-25T11:03:27.650Z,100035.00
2022-07-25T11:06:00.722Z,100060.00
2022-07-25T11:08:38.158Z,100036.00
2022-07-25T11:11:11.229Z,100029.00
2022-07-25T11:13:46.365Z,100004.00
2022-07-25T11:16:19.244Z,100013.00
2022-07-25T11:18:52.249Z,100011.00
2022-07-25T11:21:25.340Z,100002.00
2022-07-25T11:23:58.587Z,99999.00
2022-07-25T11:26:31.415Z,99998.00
2022-07-25T11:29:04.840Z,100014.00
2022-07-25T11:31:38.017Z,99985.00
2022-07-25T11:34:11.269Z,99967.00
2022-07-25T11:36:44.267Z,99986.00
2022-07-25T11:39:19.031Z,99979.00
2022-07-25T11:41:53.178Z,99986.00
2022-07-25T11:44:27.757Z,99971.00
2022-07-25T11:47:00.551Z,99956.00
2022-07-25T11:49:34.463Z,99964.00
2022-07-25T11:52:07.695Z,99955.00
2022-07-25T11:54:41.950Z,99975.00
2022-07-25T11:57:17.538Z,99947.00
2022-07-25T11:59:50.421Z,99960.00
2022-07-25T12:02:34.389Z,99936.00
2022-07-25T12:05:16.502Z,99932.00
2022-07-25T12:07:54.186Z,99944.00
2022-07-25T12:10:39.984Z,99957.00
2022-07-25T12:13:13.461Z,99952.00
2022-07-25T12:15:46.497Z,99941.00
2022-07-25T12:18:19.182Z,99944.00
2022-07-25T12:20:55.260Z,99918.00
2022-07-25T12:23:29.472Z,99917.00
2022-07-25T12:26:06.540Z,99931.00
2022-07-25T12:28:39.356Z,99903.00
2022-07-25T12:31:12.217Z,99889.00
2022-07-25T12:33:48.546Z,99910.00
2022-07-25T12:36:19.461Z,99908.00
2022-07-25T12:38:52.534Z,99898.00
2022-07-25T12:41:29.756Z,99900.00
2022-07-25T12:44:07.998Z,99879.00
2022-07-25T12:46:45.859Z,99902.00
2022-07-25T12:49:16.514Z,99873.00
2022-07-25T12:51:51.568Z,99872.00
2022-07-25T12:54:23.992Z,99877.00
2022-07-25T12:57:01.737Z,99868.00
2022-07-25T12:59:35.090Z,99850.00
2022-07-25T13:02:08.253Z,99855.00
2022-07-25T13:04:41.653Z,99865.00
2022-07-25T13:07:20.802Z,99862.00
2022-07-25T13:09:53.802Z,99864.00
2022-07-25T13:12:26.968Z,99839.00
2022-07-25T13:14:59.834Z,99836.00
2022-07-25T13:17:35.767Z,99826.00
2022-07-25T13:20:09.797Z,99823.00
2022-07-25T13:22:43.083Z,99826.00
2022-07-25T13:25:15.868Z,99811.00
2022-07-25T13:27:49.427Z,99820.00
2022-07-25T13:32:59.527Z,99788.00
2022-07-25T13:35:38.099Z,99804.00
2022-07-25T13:38:07.671Z,99785.00
2022-07-25T13:40:41.842Z,99799.00
2022-07-25T13:43:16.028Z,99777.00
2022-07-25T13:45:49.421Z,99786.00
2022-07-25T13:48:30.517Z,99784.00
2022-07-25T13:50:56.910Z,99787.00
2022-07-25T13:53:30.689Z,99796.00
2022-07-25T13:56:03.872Z,99797.00
2022-07-25T13:58:37.061Z,99775.00
2022-07-25T14:01:10.839Z,99766.00
2022-07-25T14:03:44.000Z,99752.00
2022-07-25T14:06:17.211Z,99747.00
2022-07-25T14:08:54.707Z,99752.00
2022-07-25T14:11:30.621Z,99742.00
2022-07-25T14:14:02.898Z,99748.00
2022-07-25T14:16:36.325Z,99737.00
2022-07-25T14:19:09.905Z,99723.00
2022-07-25T14:21:43.443Z,99734.00
2022-07-25T14:24:16.520Z,99726.00
2022-07-25T14:26:50.620Z,99731.00
2022-07-25T14:29:28.615Z,99728.00
2022-07-25T14:31:57.779Z,99727.00
2022-07-25T14:34:34.815Z,99729.00
2022-07-25T14:37:12.721Z,99726.00
2022-07-25T14:39:48.277Z,99733.00
2022-07-25T14:42:20.069Z,99737.00
2022-07-25T14:44:53.893Z,99729.00
2022-07-25T14:47:31.258Z,99719.00
2022-07-25T14:50:04.200Z,99731.00
2022-07-25T14:52:37.180Z,99719.00
2022-07-25T14:55:11.235Z,99721.00
2022-07-25T14:57:44.113Z,99719.00
2022-07-25T15:00:18.132Z,99701.00
2022-07-25T15:02:52.488Z,99708.00
2022-07-25T15:05:29.558Z,99698.00
2022-07-25T15:08:02.360Z,99699.00
2022-07-25T15:10:36.651Z,99691.00
2022-07-25T15:15:43.992Z,99697.00
2022-07-25T15:18:17.509Z,99679.00
2022-07-25T15:20:50.663Z,99677.00
2022-07-25T15:23:25.839Z,99669.00
2022-07-25T15:26:02.809Z,99671.00
2022-07-25T15:28:35.394Z,99683.00
2022-07-25T15:31:09.366Z,99669.00
2022-07-25T15:33:42.363Z,99670.00
2022-07-25T15:36:15.770Z,99647.00
2022-07-25T15:38:49.425Z,99651.00
2022-07-25T15:41:22.759Z,99657.00
2022-07-25T15:43:55.666Z,99653.00
2022-07-25T15:46:28.552Z,99662.00
2022-07-25T15:49:01.611Z,99650.00
2022-07-25T15:51:34.613Z,99658.00
2022-07-25T15:54:08.787Z,99655.00
2022-07-25T15:56:41.645Z,99652.00
2022-07-25T15:59:14.644Z,99657.00
2022-07-25T16:01:47.644Z,99656.00
2022-07-25T16:04:21.227Z,99652.00
2022-07-25T16:06:54.214Z,99648.00
2022-07-25T16:09:27.436Z,99647.00
2022-07-25T16:12:00.772Z,99639.00
2022-07-25T16:14:33.654Z,99638.00
2022-07-25T16:17:06.845Z,99632.00
2022-07-25T16:19:39.896Z,99635.00
2022-07-25T16:22:17.020Z,99635.00
2022-07-25T16:24:50.436Z,99637.00
2022-07-25T16:27:23.286Z,99636.00
2022-07-25T16:29:56.112Z,99628.00
2022-07-25T16:32:29.586Z,99627.00
2022-07-25T16:35:02.492Z,99629.00
2022-07-25T16:37:35.460Z,99631.00
2022-07-25T16:40:09.927Z,99629.00
2022-07-25T16:42:42.833Z,99628.00
2022-07-25T16:45:18.671Z,99625.00
2022-07-25T16:47:51.493Z,99625.00
2022-07-25T16:50:24.611Z,99624.00
2022-07-25T16:52:57.595Z,99619.00
2022-07-25T16:55:32.912Z,99617.00
2022-07-25T16:58:05.868Z,99603.00
2022-07-25T17:00:38.930Z,99607.00
2022-07-25T17:03:11.895Z,99614.00
2022-07-25T17:05:45.148Z,99617.00
2022-07-25T17:08:18.089Z,99611.00
2022-07-25T17:10:51.245Z,99602.00
2022-07-25T17:13:24.275Z,99601.00
2022-07-25T17:15:57.157Z,99594.00
2022-07-25T17:18:29.989Z,99595.00
2022-07-25T17:21:02.985Z,99601.00
2022-07-25T17:23:36.119Z,99595.00
2022-07-25T17:26:09.015Z,99594.00
2022-07-25T17:28:41.796Z,99607.00
2022-07-25T17:31:14.583Z,99596.00
2022-07-25T17:33:47.664Z,99593.00
2022-07-25T17:36:21.432Z,99592.00
2022-07-25T17:38:54.398Z,99570.00
2022-07-25T17:41:27.269Z,99585.00
2022-07-25T17:44:01.873Z,99582.00
2022-07-25T17:46:38.982Z,99595.00
2022-07-25T17:49:11.885Z,99588.00
2022-07-25T17:51:44.874Z,99592.00
2022-07-25T17:54:17.728Z,99595.00
2022-07-25T17:56:50.720Z,99596.00
2022-07-25T17:59:23.289Z,99594.00
2022-07-25T18:01:56.230Z,99597.00
2022-07-25T18:04:29.065Z,99596.00
2022-07-25T18:07:02.204Z,99583.00
2022-07-25T18:09:35.135Z,99588.00
2022-07-25T18:12:08.863Z,99593.00
2022-07-25T18:14:45.975Z,99591.00
2022-07-25T18:17:23.569Z,99595.00
2022-07-25T18:19:56.372Z,99596.00
2022-07-25T18:22:29.048Z,99595.00
2022-07-25T18:25:01.928Z,99589.00
2022-07-25T18:27:34.649Z,99589.00
2022-07-25T18:30:11.653Z,99593.00
2022-07-25T18:32:45.846Z,99597.00
2022-07-25T18:35:18.687Z,99600.00
2022-07-25T18:37:55.654Z,99605.00
2022-07-25T18:40:32.405Z,99617.00
2022-07-25T18:43:08.145Z,99604.00
2022-07-25T18:45:40.529Z,99610.00
2022-07-25T18:48:14.027Z,99617.00
2022-07-25T18:50:47.066Z,99619.00
2022-07-25T18:53:20.396Z,99614.00
2022-07-25T18:55:53.228Z,99619.00
2022-07-25T18:58:26.603Z,99609.00
2022-07-25T19:00:59.769Z,99610.00
2022-07-25T19:03:33.933Z,99610.00
2022-07-25T19:06:08.073Z,99618.00
2022-07-25T19:08:41.528Z,99606.00
2022-07-25T19:11:19.237Z,99606.00
2022-07-25T19:13:52.090Z,99614.00
2022-07-25T19:16:25.182Z,99607.00
2022-07-25T19:18:58.776Z,99606.00
2022-07-25T19:21:31.761Z,99603.00
2022-07-25T19:24:05.215Z,99600.00
2022-07-25T19:26:41.297Z,99614.00
2022-07-25T19:29:14.577Z,99609.00
2022-07-25T19:31:47.795Z,99622.00
2022-07-25T19:34:20.679Z,99624.00
2022-07-25T19:36:53.470Z,99627.00
2022-07-25T19:39:26.633Z,99620.00
2022-07-25T19:42:03.765Z,99625.00
2022-07-25T19:44:36.727Z,99629.00
2022-07-25T19:47:11.878Z,99629.00
2022-07-25T19:49:44.860Z,99632.00
2022-07-25T19:52:17.709Z,99630.00
2022-07-25T19:54:50.795Z,99627.00
2022-07-25T19:57:24.018Z,99622.00
2022-07-25T20:00:01.044Z,99618.00
2022-07-25T20:02:34.039Z,99625.00
2022-07-25T20:05:07.445Z,99628.00
2022-07-25T20:07:41.134Z,99629.00
2022-07-25T20:10:17.865Z,99626.00
2022-07-25T20:12:48.960Z,99630.00
2022-07-25T20:15:21.982Z,99634.00
2022-07-25T20:17:57.429Z,99627.00
2022-07-25T20:20:30.778Z,99636.00
2022-07-25T20:23:04.212Z,99638.00
2022-07-25T20:25:37.571Z,99634.00
2022-07-25T20:28:10.621Z,99637.00
2022-07-25T20:30:43.786Z,99628.00
2022-07-25T20:33:21.692Z,99640.00
2022-07-25T20:35:55.017Z,99640.00
2022-07-25T20:38:29.601Z,99631.00
2022-07-25T20:41:02.670Z,99622.00
2022-07-25T20:43:44.726Z,99629.00
2022-07-25T20:46:18.419Z,99637.00
2022-07-25T20:48:52.391Z,99629.00
2022-07-25T20:51:25.565Z,99638.00
2022-07-25T20:53:59.168Z,99639.00
2022-07-25T20:56:32.562Z,99635.00
2022-07-25T20:59:10.670Z,99636.00
2022-07-25T21:01:44.313Z,99633.00
2022-07-25T21:04:18.959Z,99623.00
2022-07-25T21:06:53.380Z,99633.00
2022-07-25T21:09:32.525Z,99628.00
2022-07-25T21:12:04.373Z,99625.00
2022-07-25T21:14:38.081Z,99634.00
2022-07-25T21:17:11.587Z,99635.00
2022-07-25T21:19:45.386Z,99636.00
2022-07-25T21:22:18.836Z,99639.00
2022-07-25T21:24:53.058Z,99631.00
2022-07-25T21:27:26.873Z,99627.00
2022-07-25T21:30:00.498Z,99629.00
2022-07-25T21:32:34.328Z,99617.00
2022-07-25T21:35:07.945Z,99615.00
2022-07-25T21:37:42.649Z,99622.00
2022-07-25T21:40:17.318Z,99614.00
2022-07-25T21:42:51.176Z,99600.00
2022-07-25T21:45:24.707Z,99603.00
2022-07-25T21:47:58.319Z,99605.00
2022-07-25T21:50:44.009Z,99594.00
2022-07-25T21:53:18.568Z,99614.00
2022-07-25T21:55:52.165Z,99604.00
2022-07-25T21:58:25.816Z,99596.00
2022-07-25T22:00:59.449Z,99601.00
2022-07-25T22:03:33.364Z,99597.00
2022-07-25T22:06:07.630Z,99599.00
2022-07-25T22:08:41.925Z,99602.00
2022-07-25T22:11:38.115Z,99605.00
2022-07-25T22:13:50.604Z,99592.00
2022-07-25T22:16:25.165Z,99592.00
2022-07-25T22:19:02.224Z,99586.00
2022-07-25T22:21:38.577Z,99594.00
2022-07-25T22:24:12.973Z,99590.00
2022-07-25T22:26:46.985Z,99599.00
2022-07-25T22:29:20.347Z,99604.00
2022-07-25T22:31:54.002Z,99601.00
2022-07-25T22:34:27.653Z,99606.00
2022-07-25T22:37:01.454Z,99597.00
2022-07-25T22:39:35.057Z,99597.00
2022-07-25T22:42:08.600Z,99598.00
2022-07-25T22:44:42.161Z,99586.00
2022-07-25T22:47:15.991Z,99593.00
2022-07-25T22:49:49.780Z,99594.00
2022-07-25T22:52:23.183Z,99590.00
2022-07-25T22:55:08.240Z,99598.00
2022-07-25T22:57:37.570Z,99584.00
2022-07-25T23:00:10.435Z,99589.00
2022-07-25T23:02:44.159Z,99580.00
2022-07-25T23:05:18.395Z,99579.00
2022-07-25T23:07:51.982Z,99582.00
2022-07-25T23:10:26.364Z,99572.00
2022-07-25T23:12:59.994Z,99571.00
2022-07-25T23:15:50.046Z,99582.00
2022-07-25T23:18:08.193Z,99572.00
2022-07-25T23:20:47.685Z,99563.00
2022-07-25T23:23:21.079Z,99566.00
2022-07-25T23:25:54.946Z,99576.00
2022-07-25T23:28:29.081Z,99569.00
2022-07-25T23:31:02.795Z,99580.00
2022-07-25T23:33:36.562Z,99580.00
2022-07-25T23:36:10.489Z,99572.00
2022-07-25T23:38:43.967Z,99563.00
2022-07-25T23:41:17.597Z,99566.00
2022-07-25T23:43:56.797Z,99560.00
2022-07-25T23:46:29.609Z,99557.00
2022-07-25T23:49:03.399Z,99556.00
2022-07-25T23:51:37.513Z,99550.00
2022-07-25T23:54:11.505Z,99556.00
2022-07-25T23:56:44.842Z,99536.00
2022-07-25T23:59:22.065Z,99541.00
